createdAt,value
2019-05-29T00:02:29.884Z,20.86
2019-05-29T00:05:02.158Z,20.88
2019-05-29T00:07:34.640Z,20.83
2019-05-29T00:10:08.775Z,20.76
2019-05-29T00:12:40.629Z,20.76
2019-05-29T00:15:13.004Z,20.75
2019-05-29T00:17:45.177Z,20.74
2019-05-29T00:20:18.575Z,20.75
2019-05-29T00:22:50.845Z,20.73
2019-05-29T00:25:22.959Z,20.72
2019-05-29T00:27:55.497Z,20.69
2019-05-29T00:30:28.176Z,20.68
2019-05-29T00:33:00.143Z,20.64
2019-05-29T00:35:32.517Z,20.59
2019-05-29T00:38:04.690Z,20.55
2019-05-29T00:40:37.582Z,20.51
2019-05-29T00:43:09.440Z,20.46
2019-05-29T00:45:41.721Z,20.45
2019-05-29T00:48:14.124Z,20.41
2019-05-29T00:50:46.270Z,20.42
2019-05-29T00:53:18.638Z,20.42
2019-05-29T00:55:50.716Z,20.44
2019-05-29T00:58:25.650Z,20.45
2019-05-29T01:00:57.820Z,20.48
2019-05-29T01:03:29.780Z,20.49
2019-05-29T01:06:02.362Z,20.49
2019-05-29T01:08:34.323Z,20.44
2019-05-29T01:11:06.630Z,20.39
2019-05-29T01:13:38.978Z,20.32
2019-05-29T01:16:11.392Z,20.29
2019-05-29T01:18:43.435Z,20.30
2019-05-29T01:21:15.989Z,20.36
2019-05-29T01:23:47.970Z,20.37
2019-05-29T01:26:20.896Z,20.40
2019-05-29T01:28:53.137Z,20.40
2019-05-29T01:31:25.616Z,20.40
2019-05-29T01:33:57.805Z,20.42
2019-05-29T01:36:30.056Z,20.44
2019-05-29T01:39:02.027Z,20.47
2019-05-29T01:41:34.912Z,20.47
2019-05-29T01:44:06.888Z,20.49
2019-05-29T01:46:39.363Z,20.46
2019-05-29T01:49:11.537Z,20.47
2019-05-29T01:51:44.015Z,20.47
2019-05-29T01:54:16.096Z,20.45
2019-05-29T01:56:48.286Z,20.43
2019-05-29T01:59:20.217Z,20.39
2019-05-29T02:01:52.496Z,20.40
2019-05-29T02:04:24.664Z,20.43
2019-05-29T02:06:56.630Z,20.46
2019-05-29T02:09:28.617Z,20.50
2019-05-29T02:12:00.559Z,20.57
2019-05-29T02:14:32.938Z,20.64
2019-05-29T02:17:05.315Z,20.70
2019-05-29T02:19:37.486Z,20.74
2019-05-29T02:22:09.758Z,20.77
2019-05-29T02:24:42.451Z,20.84
2019-05-29T02:27:17.307Z,20.93
2019-05-29T02:29:50.980Z,21.01
2019-05-29T02:32:23.646Z,21.09
2019-05-29T02:34:56.048Z,21.17
2019-05-29T02:37:29.036Z,21.25
2019-05-29T02:40:01.203Z,21.32
2019-05-29T02:42:34.604Z,21.37
2019-05-29T02:45:07.593Z,21.44
2019-05-29T02:47:39.862Z,21.54
2019-05-29T02:50:11.932Z,21.67
2019-05-29T02:52:44.204Z,21.73
2019-05-29T02:55:16.281Z,21.77
2019-05-29T02:57:48.652Z,21.85
2019-05-29T03:00:25.547Z,21.93
2019-05-29T03:02:57.399Z,22.06
2019-05-29T03:05:29.915Z,22.18
2019-05-29T03:08:01.948Z,22.31
2019-05-29T03:10:34.219Z,22.42
2019-05-29T03:13:07.002Z,22.52
2019-05-29T03:15:39.077Z,22.60
2019-05-29T03:18:11.245Z,22.71
2019-05-29T03:20:43.252Z,22.83
2019-05-29T03:23:16.715Z,22.96
2019-05-29T03:25:48.992Z,23.14
2019-05-29T03:28:21.465Z,23.26
2019-05-29T03:30:53.656Z,23.41
2019-05-29T03:33:28.588Z,23.53
2019-05-29T03:35:59.706Z,23.67
2019-05-29T03:38:32.726Z,23.77
2019-05-29T03:41:05.089Z,23.94
2019-05-29T03:43:38.778Z,24.14
2019-05-29T03:46:29.150Z,24.55
2019-05-29T03:48:45.073Z,24.33
2019-05-29T03:51:17.398Z,24.39
2019-05-29T03:53:49.626Z,24.52
2019-05-29T03:56:21.700Z,24.59
2019-05-29T03:58:53.964Z,24.68
2019-05-29T04:01:26.780Z,24.79
2019-05-29T04:03:58.815Z,24.85
2019-05-29T04:06:31.304Z,24.95
2019-05-29T04:09:03.159Z,25.09
2019-05-29T04:11:37.891Z,25.19
2019-05-29T04:14:09.963Z,25.33
2019-05-29T04:16:58.459Z,25.42
2019-05-29T04:19:16.063Z,25.53
2019-05-29T04:21:47.909Z,25.61
2019-05-29T04:24:19.885Z,25.63
2019-05-29T04:26:51.946Z,25.67
2019-05-29T04:29:24.842Z,25.73
2019-05-29T04:31:56.597Z,25.85
2019-05-29T04:34:29.582Z,25.92
2019-05-29T04:37:07.026Z,25.92
2019-05-29T04:39:36.965Z,25.94
2019-05-29T04:42:08.870Z,26.10
2019-05-29T04:44:41.389Z,26.18
2019-05-29T04:47:13.520Z,26.23
2019-05-29T04:49:45.793Z,26.32
2019-05-29T04:52:18.785Z,26.36
2019-05-29T04:54:50.653Z,26.41
2019-05-29T04:57:23.029Z,26.49
2019-05-29T04:59:55.198Z,26.50
2019-05-29T05:02:27.265Z,26.51
2019-05-29T05:04:59.540Z,26.57
2019-05-29T05:07:31.299Z,26.52
2019-05-29T05:10:03.367Z,26.59
2019-05-29T05:12:37.728Z,26.69
2019-05-29T05:15:10.857Z,26.82
2019-05-29T05:17:42.855Z,26.96
2019-05-29T05:20:15.021Z,27.08
2019-05-29T05:22:47.293Z,27.22
2019-05-29T05:25:19.587Z,27.39
2019-05-29T05:27:51.749Z,27.51
2019-05-29T05:30:24.178Z,27.53
2019-05-29T05:32:56.599Z,27.72
2019-05-29T05:35:29.086Z,27.86
2019-05-29T05:38:01.145Z,27.95
2019-05-29T05:40:36.990Z,28.11
2019-05-29T05:43:07.227Z,28.11
2019-05-29T05:45:39.546Z,28.20
2019-05-29T05:48:11.380Z,28.20
2019-05-29T05:50:43.264Z,28.29
2019-05-29T05:53:15.420Z,28.28
2019-05-29T05:55:48.003Z,28.11
2019-05-29T05:58:19.934Z,28.19
2019-05-29T06:00:52.310Z,28.29
2019-05-29T06:03:24.385Z,28.41
2019-05-29T06:05:56.345Z,28.54
2019-05-29T06:08:28.614Z,28.64
2019-05-29T06:11:00.888Z,28.77
2019-05-29T06:13:34.109Z,28.87
2019-05-29T06:16:06.191Z,28.93
2019-05-29T06:18:38.646Z,28.86
2019-05-29T06:21:10.709Z,28.87
2019-05-29T06:23:43.434Z,28.83
2019-05-29T06:26:16.769Z,28.83
2019-05-29T06:28:48.924Z,28.79
2019-05-29T06:31:20.899Z,28.83
2019-05-29T06:33:53.058Z,28.86
2019-05-29T06:36:25.127Z,28.99
2019-05-29T06:38:57.505Z,29.14
2019-05-29T06:41:29.690Z,29.32
2019-05-29T06:44:01.889Z,29.30
2019-05-29T06:46:34.326Z,29.18
2019-05-29T06:49:06.293Z,29.40
2019-05-29T06:51:39.324Z,29.36
2019-05-29T06:54:11.229Z,29.44
2019-05-29T06:56:43.804Z,29.49
2019-05-29T06:59:17.015Z,29.57
2019-05-29T07:01:49.374Z,29.61
2019-05-29T07:04:21.440Z,29.75
2019-05-29T07:06:53.611Z,29.85
2019-05-29T07:09:25.695Z,30.00
2019-05-29T07:11:58.050Z,30.09
2019-05-29T07:14:30.331Z,30.11
2019-05-29T07:17:02.600Z,30.13
2019-05-29T07:19:48.877Z,30.02
2019-05-29T07:22:08.885Z,30.06
2019-05-29T07:24:41.208Z,29.92
2019-05-29T07:27:13.709Z,30.04
2019-05-29T07:29:45.490Z,30.09
2019-05-29T07:32:17.874Z,29.96
2019-05-29T07:35:02.769Z,29.86
2019-05-29T07:37:24.565Z,30.01
2019-05-29T07:39:56.619Z,30.07
2019-05-29T07:42:28.590Z,30.28
2019-05-29T07:45:02.005Z,30.28
2019-05-29T07:47:35.197Z,30.32
2019-05-29T07:50:07.655Z,30.37
2019-05-29T07:52:45.347Z,30.54
2019-05-29T07:55:17.822Z,30.64
2019-05-29T07:57:50.088Z,30.67
2019-05-29T08:00:22.158Z,30.73
2019-05-29T08:02:55.217Z,30.76
2019-05-29T08:05:30.179Z,30.77
2019-05-29T08:08:02.371Z,30.70
2019-05-29T08:10:34.201Z,30.66
2019-05-29T08:13:07.529Z,30.68
2019-05-29T08:15:55.291Z,30.68
2019-05-29T08:18:14.295Z,30.87
2019-05-29T08:20:46.263Z,30.97
2019-05-29T08:23:18.323Z,31.00
2019-05-29T08:25:51.782Z,31.05
2019-05-29T08:28:24.094Z,31.12
2019-05-29T08:30:56.686Z,31.28
2019-05-29T08:33:28.633Z,31.41
2019-05-29T08:36:00.802Z,31.50
2019-05-29T08:38:33.591Z,31.47
2019-05-29T08:41:06.377Z,31.44
2019-05-29T08:43:38.249Z,31.54
2019-05-29T08:46:10.186Z,31.55
2019-05-29T08:48:41.929Z,31.66
2019-05-29T08:51:14.061Z,31.81
2019-05-29T08:53:46.463Z,31.95
2019-05-29T08:56:18.256Z,31.92
2019-05-29T08:58:51.047Z,32.03
2019-05-29T09:01:23.005Z,31.88
2019-05-29T09:03:55.018Z,32.16
2019-05-29T09:06:27.162Z,32.21
2019-05-29T09:08:59.331Z,32.10
2019-05-29T09:11:31.594Z,32.23
2019-05-29T09:14:03.857Z,32.01
2019-05-29T09:16:36.027Z,32.26
2019-05-29T09:19:07.721Z,32.34
2019-05-29T09:21:39.749Z,32.70
2019-05-29T09:24:12.893Z,32.74
2019-05-29T09:26:46.547Z,32.82
2019-05-29T09:29:21.805Z,33.01
2019-05-29T09:31:52.220Z,33.07
2019-05-29T09:34:24.431Z,33.13
2019-05-29T09:36:56.716Z,33.06
2019-05-29T09:39:28.830Z,33.16
2019-05-29T09:42:01.205Z,33.17
2019-05-29T09:44:38.791Z,33.18
2019-05-29T09:47:07.390Z,33.15
2019-05-29T09:49:39.449Z,33.20
2019-05-29T09:52:11.519Z,33.30
2019-05-29T09:54:43.402Z,33.49
2019-05-29T09:57:15.752Z,33.64
2019-05-29T09:59:48.845Z,33.88
2019-05-29T10:02:20.737Z,33.98
2019-05-29T10:04:54.405Z,33.68
2019-05-29T10:07:26.366Z,33.73
2019-05-29T10:09:59.375Z,33.67
2019-05-29T10:12:32.087Z,33.69
2019-05-29T10:15:08.396Z,33.77
2019-05-29T10:17:40.469Z,33.70
2019-05-29T10:20:12.570Z,33.92
2019-05-29T10:22:44.858Z,34.27
2019-05-29T10:25:16.882Z,34.44
2019-05-29T10:27:48.634Z,34.50
2019-05-29T10:30:20.742Z,34.78
2019-05-29T10:32:55.344Z,34.97
2019-05-29T10:35:28.737Z,35.02
2019-05-29T10:38:01.304Z,34.82
2019-05-29T10:40:33.572Z,34.83
2019-05-29T10:43:06.992Z,34.88
2019-05-29T10:45:40.563Z,34.95
2019-05-29T10:48:14.406Z,35.12
2019-05-29T10:50:52.149Z,35.22
2019-05-29T10:53:27.371Z,35.46
2019-05-29T10:56:01.521Z,35.92
2019-05-29T10:58:48.589Z,36.16
2019-05-29T11:01:11.076Z,36.28
2019-05-29T11:03:43.039Z,36.56
2019-05-29T11:06:15.206Z,36.48
2019-05-29T11:08:48.028Z,36.45
2019-05-29T11:11:20.456Z,36.84
2019-05-29T11:13:52.997Z,36.99
2019-05-29T11:16:25.318Z,36.99
2019-05-29T11:18:57.756Z,37.21
2019-05-29T11:21:29.743Z,37.36
2019-05-29T11:24:02.319Z,37.42
2019-05-29T11:26:35.370Z,37.71
2019-05-29T11:29:07.888Z,38.11
2019-05-29T11:31:39.943Z,38.59
2019-05-29T11:34:12.016Z,38.92
2019-05-29T11:36:44.687Z,38.95
2019-05-29T11:39:17.497Z,38.73
2019-05-29T11:41:50.644Z,38.94
2019-05-29T11:44:22.645Z,39.07
2019-05-29T11:46:56.094Z,39.19
2019-05-29T11:49:28.096Z,39.46
2019-05-29T11:52:22.891Z,39.30
2019-05-29T11:54:33.650Z,39.14
2019-05-29T11:57:05.408Z,39.19
2019-05-29T11:59:37.824Z,39.64
2019-05-29T12:02:09.757Z,40.25
2019-05-29T12:04:42.050Z,40.52
2019-05-29T12:07:14.284Z,41.13
2019-05-29T12:09:46.556Z,41.25
2019-05-29T12:12:18.923Z,40.37
2019-05-29T12:15:00.616Z,40.11
2019-05-29T12:17:25.034Z,39.72
2019-05-29T12:19:59.859Z,39.43
2019-05-29T12:22:30.694Z,39.34
2019-05-29T12:25:03.038Z,38.84
2019-05-29T12:27:34.910Z,38.17
2019-05-29T12:30:08.391Z,37.71
2019-05-29T12:32:42.399Z,37.23
2019-05-29T12:35:14.373Z,37.24
2019-05-29T12:37:46.648Z,37.44
2019-05-29T12:40:18.918Z,37.52
2019-05-29T12:42:50.878Z,37.60
2019-05-29T12:45:23.354Z,37.73
2019-05-29T12:47:56.490Z,37.70
2019-05-29T12:50:34.069Z,37.59
2019-05-29T12:53:03.973Z,38.22
2019-05-29T12:55:36.016Z,38.76
2019-05-29T12:58:08.080Z,38.40
2019-05-29T13:00:40.173Z,38.05
2019-05-29T13:03:12.323Z,37.78
2019-05-29T13:05:44.299Z,37.59
2019-05-29T13:08:16.551Z,36.97
2019-05-29T13:10:48.544Z,36.74
2019-05-29T13:13:20.379Z,36.59
2019-05-29T13:15:52.553Z,36.52
2019-05-29T13:18:24.714Z,37.13
2019-05-29T13:20:56.746Z,38.52
2019-05-29T13:23:42.233Z,39.15
2019-05-29T13:26:03.596Z,39.56
2019-05-29T13:28:35.382Z,40.47
2019-05-29T13:31:07.603Z,41.45
2019-05-29T13:33:39.573Z,42.15
2019-05-29T13:36:11.637Z,42.49
2019-05-29T13:38:43.596Z,42.36
2019-05-29T13:41:15.562Z,42.31
2019-05-29T13:43:47.728Z,42.40
2019-05-29T13:46:19.599Z,42.53
2019-05-29T13:48:51.658Z,41.64
2019-05-29T13:51:23.819Z,41.59
2019-05-29T13:54:03.808Z,41.40
2019-05-29T13:56:29.486Z,41.17
2019-05-29T13:59:02.145Z,41.11
2019-05-29T14:01:34.234Z,41.42
2019-05-29T14:04:06.808Z,41.84
2019-05-29T14:06:38.941Z,42.43
2019-05-29T14:09:11.046Z,42.87
2019-05-29T14:11:42.911Z,43.56
2019-05-29T14:14:14.949Z,43.67
2019-05-29T14:16:46.947Z,43.69
2019-05-29T14:19:19.118Z,43.04
2019-05-29T14:21:51.531Z,42.57
2019-05-29T14:24:29.503Z,42.11
2019-05-29T14:26:59.360Z,41.83
2019-05-29T14:29:32.627Z,42.30
2019-05-29T14:32:05.131Z,42.33
2019-05-29T14:34:37.434Z,42.18
2019-05-29T14:37:09.943Z,42.39
2019-05-29T14:39:41.770Z,42.32
2019-05-29T14:42:13.732Z,42.18
2019-05-29T14:44:46.820Z,42.11
2019-05-29T14:47:19.029Z,41.83
2019-05-29T14:49:51.170Z,41.58
2019-05-29T14:52:23.323Z,41.12
2019-05-29T14:54:55.386Z,41.26
2019-05-29T14:57:27.670Z,41.49
2019-05-29T14:59:59.632Z,41.20
2019-05-29T15:02:31.784Z,41.09
2019-05-29T15:05:05.495Z,40.90
2019-05-29T15:07:37.462Z,40.82
2019-05-29T15:10:23.915Z,41.19
2019-05-29T15:12:43.780Z,41.54
2019-05-29T15:15:16.783Z,41.52
2019-05-29T15:17:49.516Z,41.75
2019-05-29T15:20:23.591Z,42.21
2019-05-29T15:22:55.595Z,42.21
2019-05-29T15:25:28.176Z,42.04
2019-05-29T15:28:00.338Z,42.14
2019-05-29T15:30:32.925Z,41.94
2019-05-29T15:33:06.336Z,41.88
2019-05-29T15:35:38.480Z,41.67
2019-05-29T15:38:10.801Z,41.20
2019-05-29T15:40:42.923Z,40.97
2019-05-29T15:43:15.401Z,40.61
2019-05-29T15:45:47.862Z,40.68
2019-05-29T15:48:20.146Z,40.27
2019-05-29T15:50:52.519Z,40.41
2019-05-29T15:53:24.997Z,40.19
2019-05-29T15:55:57.663Z,39.85
2019-05-29T15:58:29.752Z,39.17
2019-05-29T16:01:01.715Z,38.75
2019-05-29T16:03:34.489Z,38.07
2019-05-29T16:06:06.153Z,37.41
2019-05-29T16:08:37.844Z,36.61
2019-05-29T16:11:10.577Z,35.90
2019-05-29T16:13:42.757Z,35.35
2019-05-29T16:16:15.332Z,34.79
2019-05-29T16:18:47.401Z,34.24
2019-05-29T16:21:19.468Z,33.82
2019-05-29T16:23:51.740Z,33.48
2019-05-29T16:26:24.524Z,33.13
2019-05-29T16:28:56.597Z,32.92
2019-05-29T16:31:28.865Z,32.72
2019-05-29T16:34:01.426Z,32.52
2019-05-29T16:36:34.555Z,32.35
2019-05-29T16:39:07.995Z,32.13
2019-05-29T16:41:40.038Z,31.98
2019-05-29T16:44:12.180Z,31.81
2019-05-29T16:46:44.353Z,31.69
2019-05-29T16:49:16.659Z,31.57
2019-05-29T16:51:48.479Z,31.43
2019-05-29T16:54:21.046Z,31.30
2019-05-29T16:56:52.817Z,31.23
2019-05-29T16:59:29.039Z,31.20
2019-05-29T17:01:58.887Z,31.03
2019-05-29T17:04:30.849Z,31.03
2019-05-29T17:07:03.185Z,30.81
2019-05-29T17:09:35.492Z,30.67
2019-05-29T17:12:07.348Z,30.51
2019-05-29T17:14:39.140Z,30.33
2019-05-29T17:17:11.473Z,30.22
2019-05-29T17:19:43.644Z,30.09
2019-05-29T17:22:16.556Z,29.94
2019-05-29T17:24:48.799Z,29.80
2019-05-29T17:27:21.329Z,29.64
2019-05-29T17:29:53.342Z,29.48
2019-05-29T17:32:25.583Z,29.39
2019-05-29T17:34:57.984Z,29.26
2019-05-29T17:37:30.249Z,29.17
2019-05-29T17:40:02.631Z,29.05
2019-05-29T17:42:34.686Z,28.92
2019-05-29T17:45:08.091Z,28.83
2019-05-29T17:47:40.919Z,28.71
2019-05-29T17:50:13.466Z,28.63
2019-05-29T17:52:45.605Z,28.53
2019-05-29T17:55:19.996Z,28.46
2019-05-29T17:57:51.280Z,28.40
2019-05-29T18:00:26.583Z,28.33
2019-05-29T18:02:58.796Z,28.28
2019-05-29T18:05:31.172Z,28.23
2019-05-29T18:08:03.534Z,28.17
2019-05-29T18:10:35.496Z,28.15
2019-05-29T18:13:07.251Z,28.11
2019-05-29T18:15:40.140Z,28.08
2019-05-29T18:18:12.646Z,28.06
2019-05-29T18:20:45.183Z,28.06
2019-05-29T18:23:17.580Z,28.05
2019-05-29T18:25:49.425Z,28.02
2019-05-29T18:28:22.060Z,28.02
2019-05-29T18:30:54.363Z,27.96
2019-05-29T18:33:26.805Z,27.92
2019-05-29T18:35:58.920Z,27.86
2019-05-29T18:38:31.077Z,27.79
2019-05-29T18:41:03.295Z,27.68
2019-05-29T18:43:35.405Z,27.60
2019-05-29T18:46:08.702Z,27.48
2019-05-29T18:48:40.465Z,27.37
2019-05-29T18:51:12.825Z,27.28
2019-05-29T18:53:44.483Z,27.18
2019-05-29T18:56:16.659Z,27.13
2019-05-29T18:58:49.024Z,27.04
2019-05-29T19:01:21.537Z,26.98
2019-05-29T19:03:53.682Z,26.88
2019-05-29T19:06:26.147Z,26.83
2019-05-29T19:08:58.827Z,26.77
2019-05-29T19:11:31.985Z,26.70
2019-05-29T19:14:05.161Z,26.61
2019-05-29T19:16:39.624Z,26.54
2019-05-29T19:19:11.485Z,26.49
2019-05-29T19:21:43.543Z,26.44
2019-05-29T19:24:15.923Z,26.38
2019-05-29T19:26:48.559Z,26.35
2019-05-29T19:29:23.003Z,26.32
2019-05-29T19:31:55.567Z,26.24
2019-05-29T19:34:29.412Z,26.25
2019-05-29T19:37:02.468Z,26.25
2019-05-29T19:39:34.785Z,26.33
2019-05-29T19:42:07.248Z,26.28
2019-05-29T19:44:39.602Z,26.26
2019-05-29T19:47:11.776Z,26.18
2019-05-29T19:49:43.939Z,26.14
2019-05-29T19:52:16.920Z,26.08
2019-05-29T19:54:49.297Z,26.03
2019-05-29T19:57:21.665Z,26.00
2019-05-29T19:59:53.747Z,25.95
2019-05-29T20:02:26.489Z,25.92
2019-05-29T20:04:58.673Z,25.90
2019-05-29T20:07:31.124Z,25.88
2019-05-29T20:10:03.419Z,25.88
2019-05-29T20:12:35.737Z,25.87
2019-05-29T20:15:07.749Z,25.84
2019-05-29T20:17:39.926Z,25.80
2019-05-29T20:20:12.058Z,25.73
2019-05-29T20:22:44.154Z,25.71
2019-05-29T20:25:16.419Z,25.68
2019-05-29T20:27:48.281Z,25.64
2019-05-29T20:30:20.241Z,25.62
2019-05-29T20:32:52.919Z,25.60
2019-05-29T20:35:25.195Z,25.54
2019-05-29T20:37:58.179Z,25.50
2019-05-29T20:40:31.037Z,25.45
2019-05-29T20:43:03.329Z,25.40
2019-05-29T20:45:35.620Z,25.39
2019-05-29T20:48:07.693Z,25.37
2019-05-29T20:50:39.929Z,25.40
2019-05-29T20:53:12.111Z,25.46
2019-05-29T20:55:44.162Z,25.46
2019-05-29T20:58:24.513Z,25.48
2019-05-29T21:00:50.521Z,25.52
2019-05-29T21:03:22.609Z,25.50
2019-05-29T21:05:54.784Z,25.55
2019-05-29T21:08:27.678Z,25.58
2019-05-29T21:11:00.073Z,25.56
2019-05-29T21:13:35.303Z,25.56
2019-05-29T21:16:07.400Z,25.54
2019-05-29T21:18:39.924Z,25.51
2019-05-29T21:21:11.776Z,25.47
2019-05-29T21:23:44.783Z,25.46
2019-05-29T21:26:16.927Z,25.46
2019-05-29T21:28:50.760Z,25.43
2019-05-29T21:31:22.801Z,25.46
2019-05-29T21:33:55.069Z,25.46
2019-05-29T21:36:26.830Z,25.48
2019-05-29T21:38:58.992Z,25.51
2019-05-29T21:41:31.775Z,25.53
2019-05-29T21:44:03.737Z,25.57
2019-05-29T21:46:36.700Z,25.61
2019-05-29T21:49:08.488Z,25.63
2019-05-29T21:51:41.494Z,25.63
2019-05-29T21:54:13.546Z,25.65
2019-05-29T21:56:45.867Z,25.64
2019-05-29T21:59:17.762Z,25.77
2019-05-29T22:01:49.443Z,25.83
2019-05-29T22:04:21.790Z,25.90
2019-05-29T22:06:54.903Z,25.88
2019-05-29T22:09:27.154Z,25.78
2019-05-29T22:12:00.512Z,25.76
2019-05-29T22:14:33.542Z,25.71
2019-05-29T22:17:05.919Z,25.63
2019-05-29T22:19:37.735Z,25.59
2019-05-29T22:22:09.817Z,25.59
2019-05-29T22:24:41.887Z,25.55
2019-05-29T22:27:14.078Z,25.56
2019-05-29T22:29:46.260Z,25.50
2019-05-29T22:32:18.523Z,25.50
2019-05-29T22:34:52.082Z,25.47
2019-05-29T22:37:24.489Z,25.42
2019-05-29T22:39:57.737Z,25.39
2019-05-29T22:42:29.646Z,25.38
2019-05-29T22:45:02.220Z,25.36
2019-05-29T22:47:34.397Z,25.35
2019-05-29T22:50:07.185Z,25.35
2019-05-29T22:52:38.943Z,25.35
2019-05-29T22:55:10.967Z,25.30
2019-05-29T22:57:43.177Z,25.30
2019-05-29T23:00:16.593Z,25.27
2019-05-29T23:02:48.946Z,25.26
2019-05-29T23:05:21.115Z,25.24
2019-05-29T23:07:54.046Z,25.21
2019-05-29T23:10:25.716Z,25.19
2019-05-29T23:13:01.109Z,25.13
2019-05-29T23:15:32.367Z,25.10
2019-05-29T23:18:04.822Z,25.08
2019-05-29T23:20:36.784Z,25.06
2019-05-29T23:23:08.970Z,25.02
2019-05-29T23:25:40.864Z,24.97
2019-05-29T23:28:13.897Z,24.89
2019-05-29T23:30:45.867Z,24.85
2019-05-29T23:33:18.245Z,24.84
2019-05-29T23:35:50.109Z,24.82
2019-05-29T23:38:22.255Z,24.81
2019-05-29T23:40:55.282Z,24.80
2019-05-29T23:43:27.128Z,24.77
2019-05-29T23:45:59.458Z,24.72
2019-05-29T23:48:32.019Z,24.68
2019-05-29T23:51:04.139Z,24.63
2019-05-29T23:53:36.133Z,24.57
2019-05-29T23:56:08.280Z,24.51
2019-05-29T23:58:40.242Z,24.47
